sensor_id;sensor_type;location;lat;lon;timestamp;pressure;altitude;pressure_sealevel;temperature;humidity
10008;BME280;5043;41.766;26.204;2023-09-18T00:00:03;101427.53;;;18.89;96.49
10008;BME280;5043;41.766;26.204;2023-09-18T00:02:30;101388.44;;;18.79;96.55
10008;BME280;5043;41.766;26.204;2023-09-18T00:04:56;101430.03;;;19.00;96.76
10008;BME280;5043;41.766;26.204;2023-09-18T00:07:22;101380.03;;;18.64;97.01
10008;BME280;5043;41.766;26.204;2023-09-18T00:09:47;101421.78;;;18.84;97.49
10008;BME280;5043;41.766;26.204;2023-09-18T00:12:14;101428.81;;;18.76;97.92
10008;BME280;5043;41.766;26.204;2023-09-18T00:14:39;101427.00;;;18.76;98.21
10008;BME280;5043;41.766;26.204;2023-09-18T00:17:06;101413.50;;;18.78;97.99
10008;BME280;5043;41.766;26.204;2023-09-18T00:19:33;101404.06;;;18.74;98.40
10008;BME280;5043;41.766;26.204;2023-09-18T00:21:59;101416.16;;;18.78;98.69
10008;BME280;5043;41.766;26.204;2023-09-18T00:24:26;101419.66;;;18.78;98.72
10008;BME280;5043;41.766;26.204;2023-09-18T00:26:52;101432.06;;;18.79;98.61
10008;BME280;5043;41.766;26.204;2023-09-18T00:29:18;101431.50;;;18.76;98.99
10008;BME280;5043;41.766;26.204;2023-09-18T00:31:44;101388.81;;;18.57;99.25
10008;BME280;5043;41.766;26.204;2023-09-18T00:34:09;101408.28;;;18.76;99.07
10008;BME280;5043;41.766;26.204;2023-09-18T00:36:35;101427.16;;;18.75;98.79
10008;BME280;5043;41.766;26.204;2023-09-18T00:39:00;101381.31;;;18.60;98.72
10008;BME280;5043;41.766;26.204;2023-09-18T00:41:26;101392.69;;;18.62;98.64
10008;BME280;5043;41.766;26.204;2023-09-18T00:43:51;101409.31;;;18.66;98.93
10008;BME280;5043;41.766;26.204;2023-09-18T00:46:16;101417.34;;;18.66;99.27
10008;BME280;5043;41.766;26.204;2023-09-18T00:48:42;101404.84;;;18.57;99.71
10008;BME280;5043;41.766;26.204;2023-09-18T00:51:08;101403.97;;;18.56;99.98
10008;BME280;5043;41.766;26.204;2023-09-18T00:53:34;101412.13;;;18.54;99.86
10008;BME280;5043;41.766;26.204;2023-09-18T00:56:00;101387.38;;;18.43;100.00
10008;BME280;5043;41.766;26.204;2023-09-18T00:58:29;101406.69;;;18.46;100.00
10008;BME280;5043;41.766;26.204;2023-09-18T01:00:55;101405.56;;;18.49;100.00
10008;BME280;5043;41.766;26.204;2023-09-18T01:03:22;101403.56;;;18.51;100.00
10008;BME280;5043;41.766;26.204;2023-09-18T01:05:48;101410.47;;;18.53;100.00
10008;BME280;5043;41.766;26.204;2023-09-18T01:08:13;101405.25;;;18.42;100.00
10008;BME280;5043;41.766;26.204;2023-09-18T01:14:13;101412.28;;;18.53;100.00
10008;BME280;5043;41.766;26.204;2023-09-18T01:17:01;101408.75;;;18.52;100.00
10008;BME280;5043;41.766;26.204;2023-09-18T01:19:43;101435.78;;;18.49;100.00
10008;BME280;5043;41.766;26.204;2023-09-18T01:22:14;101392.59;;;18.44;100.00
10008;BME280;5043;41.766;26.204;2023-09-18T01:24:41;101416.66;;;18.54;100.00
10008;BME280;5043;41.766;26.204;2023-09-18T01:27:13;101384.84;;;18.41;100.00
10008;BME280;5043;41.766;26.204;2023-09-18T01:29:39;101394.97;;;18.47;100.00
10008;BME280;5043;41.766;26.204;2023-09-18T01:32:05;101352.81;;;18.22;100.00
10008;BME280;5043;41.766;26.204;2023-09-18T01:34:33;101388.81;;;18.37;100.00
10008;BME280;5043;41.766;26.204;2023-09-18T01:37:01;101387.38;;;18.33;100.00
10008;BME280;5043;41.766;26.204;2023-09-18T01:39:28;101402.88;;;18.30;100.00
10008;BME280;5043;41.766;26.204;2023-09-18T01:42:01;101380.13;;;18.16;100.00
10008;BME280;5043;41.766;26.204;2023-09-18T01:44:28;101376.75;;;18.14;100.00
10008;BME280;5043;41.766;26.204;2023-09-18T01:46:56;101360.47;;;17.98;100.00
10008;BME280;5043;41.766;26.204;2023-09-18T01:49:39;101386.00;;;18.20;100.00
10008;BME280;5043;41.766;26.204;2023-09-18T01:52:06;101385.31;;;18.18;99.77
10008;BME280;5043;41.766;26.204;2023-09-18T01:54:33;101359.34;;;17.91;99.02
10008;BME280;5043;41.766;26.204;2023-09-18T01:56:59;101379.53;;;18.03;99.27
10008;BME280;5043;41.766;26.204;2023-09-18T01:59:25;101385.47;;;18.16;99.19
10008;BME280;5043;41.766;26.204;2023-09-18T02:01:51;101381.66;;;18.09;99.41
10008;BME280;5043;41.766;26.204;2023-09-18T02:04:17;101356.38;;;18.04;99.41
10008;BME280;5043;41.766;26.204;2023-09-18T02:06:44;101380.66;;;18.10;99.49
10008;BME280;5043;41.766;26.204;2023-09-18T02:09:09;101362.13;;;17.99;99.81
10008;BME280;5043;41.766;26.204;2023-09-18T02:11:40;101400.06;;;18.22;99.17
10008;BME280;5043;41.766;26.204;2023-09-18T02:14:06;101384.75;;;18.14;99.54
10008;BME280;5043;41.766;26.204;2023-09-18T02:16:33;101345.16;;;17.91;99.45
10008;BME280;5043;41.766;26.204;2023-09-18T02:18:59;101350.59;;;17.89;99.28
10008;BME280;5043;41.766;26.204;2023-09-18T02:21:24;101393.91;;;18.02;99.95
10008;BME280;5043;41.766;26.204;2023-09-18T02:23:51;101408.81;;;18.05;100.00
10008;BME280;5043;41.766;26.204;2023-09-18T02:26:18;101378.16;;;18.09;99.82
10008;BME280;5043;41.766;26.204;2023-09-18T02:28:45;101400.06;;;18.12;99.35
10008;BME280;5043;41.766;26.204;2023-09-18T02:31:10;101391.34;;;18.10;99.43
10008;BME280;5043;41.766;26.204;2023-09-18T02:33:39;101382.63;;;18.08;99.27
10008;BME280;5043;41.766;26.204;2023-09-18T02:36:05;101387.28;;;18.06;99.04
10008;BME280;5043;41.766;26.204;2023-09-18T02:38:30;101407.38;;;18.01;99.16
10008;BME280;5043;41.766;26.204;2023-09-18T02:40:56;101390.38;;;18.02;99.01
10008;BME280;5043;41.766;26.204;2023-09-18T02:43:22;101394.44;;;17.96;99.11
10008;BME280;5043;41.766;26.204;2023-09-18T02:45:48;101394.59;;;18.04;99.53
10008;BME280;5043;41.766;26.204;2023-09-18T02:48:14;101335.31;;;17.62;99.93
10008;BME280;5043;41.766;26.204;2023-09-18T02:50:40;101412.00;;;17.99;100.00
10008;BME280;5043;41.766;26.204;2023-09-18T02:53:07;101364.50;;;17.64;99.88
10008;BME280;5043;41.766;26.204;2023-09-18T02:55:35;101341.34;;;17.55;100.00
10008;BME280;5043;41.766;26.204;2023-09-18T02:58:00;101389.81;;;17.79;100.00
10008;BME280;5043;41.766;26.204;2023-09-18T03:00:26;101326.38;;;17.33;100.00
10008;BME280;5043;41.766;26.204;2023-09-18T03:02:51;101424.81;;;17.76;100.00
10008;BME280;5043;41.766;26.204;2023-09-18T03:05:16;101389.22;;;17.66;100.00
10008;BME280;5043;41.766;26.204;2023-09-18T03:07:42;101416.06;;;17.64;100.00
10008;BME280;5043;41.766;26.204;2023-09-18T03:10:09;101390.34;;;17.54;100.00
10008;BME280;5043;41.766;26.204;2023-09-18T03:12:39;101397.22;;;17.56;100.00
10008;BME280;5043;41.766;26.204;2023-09-18T03:15:05;101415.72;;;17.48;100.00
10008;BME280;5043;41.766;26.204;2023-09-18T03:17:31;101387.34;;;17.47;100.00
10008;BME280;5043;41.766;26.204;2023-09-18T03:19:57;101383.69;;;17.39;100.00
10008;BME280;5043;41.766;26.204;2023-09-18T03:22:22;101403.63;;;17.35;100.00
10008;BME280;5043;41.766;26.204;2023-09-18T03:24:48;101412.59;;;17.34;100.00
10008;BME280;5043;41.766;26.204;2023-09-18T03:27:13;101417.38;;;17.40;100.00
10008;BME280;5043;41.766;26.204;2023-09-18T03:29:39;101393.66;;;17.37;100.00
10008;BME280;5043;41.766;26.204;2023-09-18T03:32:04;101320.41;;;16.91;100.00
10008;BME280;5043;41.766;26.204;2023-09-18T03:34:30;101393.75;;;17.26;100.00
10008;BME280;5043;41.766;26.204;2023-09-18T03:36:55;101387.41;;;17.17;100.00
10008;BME280;5043;41.766;26.204;2023-09-18T03:39:21;101411.03;;;17.31;100.00
10008;BME280;5043;41.766;26.204;2023-09-18T03:41:46;101376.00;;;17.05;100.00
10008;BME280;5043;41.766;26.204;2023-09-18T03:44:11;101379.13;;;17.10;100.00
10008;BME280;5043;41.766;26.204;2023-09-18T03:46:38;101361.28;;;17.01;100.00
10008;BME280;5043;41.766;26.204;2023-09-18T03:49:04;101393.16;;;17.12;100.00
10008;BME280;5043;41.766;26.204;2023-09-18T03:51:31;101412.00;;;17.21;100.00
10008;BME280;5043;41.766;26.204;2023-09-18T03:53:57;101407.47;;;17.11;100.00
10008;BME280;5043;41.766;26.204;2023-09-18T03:56:23;101356.69;;;16.73;100.00
10008;BME280;5043;41.766;26.204;2023-09-18T03:58:48;101401.72;;;17.06;100.00
10008;BME280;5043;41.766;26.204;2023-09-18T04:01:18;101417.75;;;17.16;100.00
10008;BME280;5043;41.766;26.204;2023-09-18T04:03:45;101410.88;;;17.13;100.00
10008;BME280;5043;41.766;26.204;2023-09-18T04:06:10;101386.91;;;16.93;100.00
10008;BME280;5043;41.766;26.204;2023-09-18T04:08:35;101418.69;;;17.05;100.00
10008;BME280;5043;41.766;26.204;2023-09-18T04:11:01;101423.47;;;17.11;100.00
10008;BME280;5043;41.766;26.204;2023-09-18T04:13:29;101427.53;;;17.06;100.00
10008;BME280;5043;41.766;26.204;2023-09-18T04:15:54;101415.00;;;16.97;100.00
10008;BME280;5043;41.766;26.204;2023-09-18T04:18:22;101405.97;;;16.88;100.00
10008;BME280;5043;41.766;26.204;2023-09-18T04:20:47;101388.19;;;16.68;100.00
10008;BME280;5043;41.766;26.204;2023-09-18T04:23:26;101457.66;;;16.97;100.00
10008;BME280;5043;41.766;26.204;2023-09-18T04:25:54;101431.81;;;16.88;100.00
10008;BME280;5043;41.766;26.204;2023-09-18T04:28:21;101430.25;;;16.85;100.00
10008;BME280;5043;41.766;26.204;2023-09-18T04:30:46;101477.13;;;16.88;100.00
10008;BME280;5043;41.766;26.204;2023-09-18T04:33:15;101422.50;;;16.82;100.00
10008;BME280;5043;41.766;26.204;2023-09-18T04:35:41;101443.88;;;16.92;100.00
10008;BME280;5043;41.766;26.204;2023-09-18T04:38:07;101409.97;;;16.73;100.00
10008;BME280;5043;41.766;26.204;2023-09-18T04:40:36;101448.16;;;17.04;100.00
10008;BME280;5043;41.766;26.204;2023-09-18T04:43:02;101398.06;;;16.77;100.00
10008;BME280;5043;41.766;26.204;2023-09-18T04:45:30;101410.72;;;16.85;100.00
10008;BME280;5043;41.766;26.204;2023-09-18T04:47:55;101443.81;;;17.12;100.00
10008;BME280;5043;41.766;26.204;2023-09-18T04:50:22;101449.31;;;17.11;100.00
10008;BME280;5043;41.766;26.204;2023-09-18T04:52:47;101422.91;;;17.08;100.00
10008;BME280;5043;41.766;26.204;2023-09-18T04:55:14;101408.91;;;17.15;100.00
10008;BME280;5043;41.766;26.204;2023-09-18T04:57:39;101404.72;;;17.23;100.00
10008;BME280;5043;41.766;26.204;2023-09-18T05:00:05;101394.91;;;17.23;100.00
10008;BME280;5043;41.766;26.204;2023-09-18T05:02:35;101448.63;;;17.58;100.00
10008;BME280;5043;41.766;26.204;2023-09-18T05:05:01;101439.94;;;17.66;100.00
10008;BME280;5043;41.766;26.204;2023-09-18T05:07:30;101410.03;;;17.62;100.00
10008;BME280;5043;41.766;26.204;2023-09-18T05:09:56;101404.00;;;17.79;100.00
10008;BME280;5043;41.766;26.204;2023-09-18T05:12:22;101435.63;;;18.13;100.00
10008;BME280;5043;41.766;26.204;2023-09-18T05:14:48;101398.13;;;18.05;100.00
10008;BME280;5043;41.766;26.204;2023-09-18T05:17:16;101431.84;;;18.34;100.00
10008;BME280;5043;41.766;26.204;2023-09-18T05:19:42;101439.16;;;18.42;100.00
10008;BME280;5043;41.766;26.204;2023-09-18T05:22:08;101457.97;;;18.40;100.00
10008;BME280;5043;41.766;26.204;2023-09-18T05:24:40;101453.78;;;18.38;100.00
10008;BME280;5043;41.766;26.204;2023-09-18T05:27:06;101449.28;;;18.48;100.00
10008;BME280;5043;41.766;26.204;2023-09-18T05:29:33;101435.47;;;18.62;99.99
10008;BME280;5043;41.766;26.204;2023-09-18T05:32:00;101437.28;;;18.71;99.93
10008;BME280;5043;41.766;26.204;2023-09-18T05:34:25;101415.16;;;18.79;99.32
10008;BME280;5043;41.766;26.204;2023-09-18T05:36:51;101437.09;;;18.92;98.73
10008;BME280;5043;41.766;26.204;2023-09-18T05:39:17;101429.97;;;19.10;98.11
10008;BME280;5043;41.766;26.204;2023-09-18T05:41:42;101426.25;;;19.20;97.15
10008;BME280;5043;41.766;26.204;2023-09-18T05:44:08;101422.91;;;19.18;96.48
10008;BME280;5043;41.766;26.204;2023-09-18T05:46:35;101453.03;;;19.57;96.11
10008;BME280;5043;41.766;26.204;2023-09-18T05:49:00;101433.06;;;19.69;95.30
10008;BME280;5043;41.766;26.204;2023-09-18T05:51:26;101434.28;;;19.75;94.63
10008;BME280;5043;41.766;26.204;2023-09-18T05:53:52;101394.66;;;19.61;94.34
10008;BME280;5043;41.766;26.204;2023-09-18T05:56:18;101405.06;;;19.81;93.79
10008;BME280;5043;41.766;26.204;2023-09-18T05:58:43;101432.78;;;20.08;93.37
10008;BME280;5043;41.766;26.204;2023-09-18T06:01:09;101441.72;;;20.16;92.78
10008;BME280;5043;41.766;26.204;2023-09-18T06:03:35;101417.25;;;20.11;92.69
10008;BME280;5043;41.766;26.204;2023-09-18T06:06:02;101436.09;;;20.37;92.23
10008;BME280;5043;41.766;26.204;2023-09-18T06:08:28;101438.25;;;20.59;91.16
10008;BME280;5043;41.766;26.204;2023-09-18T06:10:59;101443.91;;;20.74;90.28
10008;BME280;5043;41.766;26.204;2023-09-18T06:13:25;101450.72;;;20.94;89.84
10008;BME280;5043;41.766;26.204;2023-09-18T06:15:52;101446.38;;;20.93;89.32
10008;BME280;5043;41.766;26.204;2023-09-18T06:18:22;101447.66;;;21.06;88.48
10008;BME280;5043;41.766;26.204;2023-09-18T06:20:48;101439.97;;;21.11;88.38
10008;BME280;5043;41.766;26.204;2023-09-18T06:23:14;101440.75;;;21.38;87.63
10008;BME280;5043;41.766;26.204;2023-09-18T06:25:40;101453.22;;;21.47;85.18
10008;BME280;5043;41.766;26.204;2023-09-18T06:28:06;101443.84;;;21.67;84.95
10008;BME280;5043;41.766;26.204;2023-09-18T06:30:32;101459.72;;;21.86;83.57
10008;BME280;5043;41.766;26.204;2023-09-18T06:33:01;101448.66;;;21.97;83.13
10008;BME280;5043;41.766;26.204;2023-09-18T06:35:29;101417.59;;;22.03;82.13
10008;BME280;5043;41.766;26.204;2023-09-18T06:37:56;101425.81;;;22.09;81.69
10008;BME280;5043;41.766;26.204;2023-09-18T06:40:24;101413.06;;;22.19;80.35
10008;BME280;5043;41.766;26.204;2023-09-18T06:42:50;101429.88;;;22.29;80.04
10008;BME280;5043;41.766;26.204;2023-09-18T06:45:17;101438.81;;;22.62;79.57
10008;BME280;5043;41.766;26.204;2023-09-18T06:47:43;101434.75;;;22.66;78.96
10008;BME280;5043;41.766;26.204;2023-09-18T06:50:08;101374.72;;;22.49;78.39
10008;BME280;5043;41.766;26.204;2023-09-18T06:52:35;101441.38;;;23.02;77.34
10008;BME280;5043;41.766;26.204;2023-09-18T06:55:00;101424.34;;;23.18;76.06
10008;BME280;5043;41.766;26.204;2023-09-18T06:57:26;101398.63;;;23.15;74.18
10008;BME280;5043;41.766;26.204;2023-09-18T06:59:53;101428.84;;;23.42;74.39
10008;BME280;5043;41.766;26.204;2023-09-18T07:02:19;101432.13;;;23.52;73.04
10008;BME280;5043;41.766;26.204;2023-09-18T07:04:44;101428.03;;;23.64;67.44
10008;BME280;5043;41.766;26.204;2023-09-18T07:07:14;101433.81;;;23.83;64.87
10008;BME280;5043;41.766;26.204;2023-09-18T07:09:42;101442.44;;;24.10;56.75
10008;BME280;5043;41.766;26.204;2023-09-18T07:12:08;101434.63;;;24.37;55.66
10008;BME280;5043;41.766;26.204;2023-09-18T07:14:35;101378.22;;;24.28;52.65
10008;BME280;5043;41.766;26.204;2023-09-18T07:17:01;101422.91;;;24.82;50.13
10008;BME280;5043;41.766;26.204;2023-09-18T07:19:27;101427.84;;;25.08;49.17
10008;BME280;5043;41.766;26.204;2023-09-18T07:21:54;101423.84;;;25.18;48.78
10008;BME280;5043;41.766;26.204;2023-09-18T07:24:21;101426.09;;;25.30;48.20
10008;BME280;5043;41.766;26.204;2023-09-18T07:26:48;101358.72;;;25.13;46.48
10008;BME280;5043;41.766;26.204;2023-09-18T07:29:14;101411.63;;;25.52;45.28
10008;BME280;5043;41.766;26.204;2023-09-18T07:31:44;101416.66;;;25.55;45.56
10008;BME280;5043;41.766;26.204;2023-09-18T07:34:10;101412.56;;;25.80;44.31
10008;BME280;5043;41.766;26.204;2023-09-18T07:36:36;101401.22;;;25.91;43.37
10008;BME280;5043;41.766;26.204;2023-09-18T07:39:02;101376.72;;;25.92;42.37
10008;BME280;5043;41.766;26.204;2023-09-18T07:41:29;101424.91;;;26.25;41.61
10008;BME280;5043;41.766;26.204;2023-09-18T07:43:55;101420.00;;;26.35;42.08
10008;BME280;5043;41.766;26.204;2023-09-18T07:46:22;101422.38;;;26.44;40.95
10008;BME280;5043;41.766;26.204;2023-09-18T07:48:47;101417.97;;;26.43;41.57
10008;BME280;5043;41.766;26.204;2023-09-18T07:51:13;101423.25;;;26.51;40.87
10008;BME280;5043;41.766;26.204;2023-09-18T07:53:39;101412.69;;;26.35;40.15
10008;BME280;5043;41.766;26.204;2023-09-18T07:56:05;101421.03;;;26.61;40.91
10008;BME280;5043;41.766;26.204;2023-09-18T07:58:31;101423.88;;;26.75;40.51
10008;BME280;5043;41.766;26.204;2023-09-18T08:00:58;101426.84;;;26.80;40.44
10008;BME280;5043;41.766;26.204;2023-09-18T08:03:26;101423.75;;;26.89;40.15
10008;BME280;5043;41.766;26.204;2023-09-18T08:05:52;101395.81;;;26.61;41.13
10008;BME280;5043;41.766;26.204;2023-09-18T08:08:19;101434.28;;;26.78;40.91
10008;BME280;5043;41.766;26.204;2023-09-18T08:10:48;101411.44;;;26.59;39.88
10008;BME280;5043;41.766;26.204;2023-09-18T08:13:13;101414.97;;;26.59;39.19
10008;BME280;5043;41.766;26.204;2023-09-18T08:15:39;101407.53;;;26.68;39.65
10008;BME280;5043;41.766;26.204;2023-09-18T08:18:05;101409.75;;;26.79;40.37
10008;BME280;5043;41.766;26.204;2023-09-18T08:20:30;101398.44;;;26.76;41.28
10008;BME280;5043;41.766;26.204;2023-09-18T08:22:58;101406.03;;;26.87;41.33
10008;BME280;5043;41.766;26.204;2023-09-18T08:25:26;101401.88;;;26.91;40.83
10008;BME280;5043;41.766;26.204;2023-09-18T08:27:52;101387.34;;;26.71;40.88
10008;BME280;5043;41.766;26.204;2023-09-18T08:30:18;101388.50;;;26.83;40.39
10008;BME280;5043;41.766;26.204;2023-09-18T08:32:46;101390.94;;;27.05;40.58
10008;BME280;5043;41.766;26.204;2023-09-18T08:35:13;101344.78;;;26.92;39.17
10008;BME280;5043;41.766;26.204;2023-09-18T08:37:40;101386.81;;;27.22;38.37
10008;BME280;5043;41.766;26.204;2023-09-18T08:40:09;101377.28;;;27.33;37.18
10008;BME280;5043;41.766;26.204;2023-09-18T08:42:38;101375.72;;;27.58;36.03
10008;BME280;5043;41.766;26.204;2023-09-18T08:45:07;101373.00;;;27.45;35.57
10008;BME280;5043;41.766;26.204;2023-09-18T08:47:35;101359.91;;;27.62;35.75
10008;BME280;5043;41.766;26.204;2023-09-18T08:50:02;101372.63;;;27.74;35.61
10008;BME280;5043;41.766;26.204;2023-09-18T08:52:28;101361.81;;;27.94;35.51
10008;BME280;5043;41.766;26.204;2023-09-18T08:54:54;101339.41;;;27.46;35.45
10008;BME280;5043;41.766;26.204;2023-09-18T08:57:21;101381.97;;;27.52;36.44
10008;BME280;5043;41.766;26.204;2023-09-18T08:59:49;101388.44;;;27.58;36.13
10008;BME280;5043;41.766;26.204;2023-09-18T09:02:21;101374.53;;;27.80;36.02
10008;BME280;5043;41.766;26.204;2023-09-18T09:04:48;101378.91;;;27.88;35.22
10008;BME280;5043;41.766;26.204;2023-09-18T09:07:13;101364.38;;;27.35;36.49
10008;BME280;5043;41.766;26.204;2023-09-18T09:09:40;101349.38;;;27.39;36.61
10008;BME280;5043;41.766;26.204;2023-09-18T09:12:07;101352.84;;;27.80;36.23
10008;BME280;5043;41.766;26.204;2023-09-18T09:14:33;101365.00;;;28.11;35.54
10008;BME280;5043;41.766;26.204;2023-09-18T09:16:58;101379.41;;;28.18;35.24
10008;BME280;5043;41.766;26.204;2023-09-18T09:19:29;101336.81;;;28.25;35.48
10008;BME280;5043;41.766;26.204;2023-09-18T09:21:55;101365.38;;;28.73;34.21
10008;BME280;5043;41.766;26.204;2023-09-18T09:24:43;101361.41;;;28.69;33.83
10008;BME280;5043;41.766;26.204;2023-09-18T09:27:11;101323.41;;;28.23;33.99
10008;BME280;5043;41.766;26.204;2023-09-18T09:29:40;101350.34;;;28.38;33.97
10008;BME280;5043;41.766;26.204;2023-09-18T09:32:13;101324.06;;;28.32;33.44
10008;BME280;5043;41.766;26.204;2023-09-18T09:34:41;101343.56;;;28.86;33.50
10008;BME280;5043;41.766;26.204;2023-09-18T09:37:07;101339.13;;;29.11;32.85
10008;BME280;5043;41.766;26.204;2023-09-18T09:39:33;101329.88;;;29.25;32.67
10008;BME280;5043;41.766;26.204;2023-09-18T09:42:01;101349.91;;;29.38;33.17
10008;BME280;5043;41.766;26.204;2023-09-18T09:44:32;101344.28;;;29.26;33.10
10008;BME280;5043;41.766;26.204;2023-09-18T09:46:59;101315.72;;;29.04;33.11
10008;BME280;5043;41.766;26.204;2023-09-18T09:49:25;101329.06;;;29.18;33.87
10008;BME280;5043;41.766;26.204;2023-09-18T09:51:53;101295.81;;;29.10;33.38
10008;BME280;5043;41.766;26.204;2023-09-18T09:54:37;101329.22;;;29.30;33.39
10008;BME280;5043;41.766;26.204;2023-09-18T09:57:06;101328.75;;;29.40;33.58
10008;BME280;5043;41.766;26.204;2023-09-18T09:59:32;101309.47;;;29.79;32.91
10008;BME280;5043;41.766;26.204;2023-09-18T10:02:00;101291.69;;;30.01;32.46
10008;BME280;5043;41.766;26.204;2023-09-18T10:04:28;101322.63;;;30.31;32.11
10008;BME280;5043;41.766;26.204;2023-09-18T10:07:12;101311.94;;;30.30;32.34
10008;BME280;5043;41.766;26.204;2023-09-18T10:09:41;101315.91;;;30.09;32.18
10008;BME280;5043;41.766;26.204;2023-09-18T10:12:12;101298.34;;;29.49;32.99
10008;BME280;5043;41.766;26.204;2023-09-18T10:14:41;101300.38;;;29.22;33.03
10008;BME280;5043;41.766;26.204;2023-09-18T10:17:19;101301.56;;;29.33;33.42
10008;BME280;5043;41.766;26.204;2023-09-18T10:19:57;101301.75;;;29.45;33.12
10008;BME280;5043;41.766;26.204;2023-09-18T10:22:45;101297.50;;;29.49;33.17
10008;BME280;5043;41.766;26.204;2023-09-18T10:25:20;101305.94;;;29.72;33.23
10008;BME280;5043;41.766;26.204;2023-09-18T10:27:49;101305.03;;;30.09;32.17
10008;BME280;5043;41.766;26.204;2023-09-18T10:30:20;101266.53;;;30.06;32.17
10008;BME280;5043;41.766;26.204;2023-09-18T10:32:50;101285.38;;;30.50;31.75
10008;BME280;5043;41.766;26.204;2023-09-18T10:35:16;101287.97;;;29.96;31.64
10008;BME280;5043;41.766;26.204;2023-09-18T10:37:42;101290.53;;;29.90;32.38
10008;BME280;5043;41.766;26.204;2023-09-18T10:40:11;101309.25;;;30.05;31.94
10008;BME280;5043;41.766;26.204;2023-09-18T10:42:39;101290.22;;;30.23;31.75
10008;BME280;5043;41.766;26.204;2023-09-18T10:45:08;101286.34;;;30.74;30.84
10008;BME280;5043;41.766;26.204;2023-09-18T10:47:42;101248.84;;;30.87;30.84
10008;BME280;5043;41.766;26.204;2023-09-18T10:50:12;101278.91;;;30.63;30.82
10008;BME280;5043;41.766;26.204;2023-09-18T10:52:44;101283.25;;;30.52;31.03
10008;BME280;5043;41.766;26.204;2023-09-18T10:55:14;101228.19;;;30.07;31.49
10008;BME280;5043;41.766;26.204;2023-09-18T10:57:57;101275.34;;;30.62;31.33
10008;BME280;5043;41.766;26.204;2023-09-18T11:00:31;101248.94;;;30.81;30.78
10008;BME280;5043;41.766;26.204;2023-09-18T11:03:15;101283.50;;;31.16;29.77
10008;BME280;5043;41.766;26.204;2023-09-18T11:05:48;101288.69;;;30.88;30.01
10008;BME280;5043;41.766;26.204;2023-09-18T11:11:07;101265.75;;;30.41;30.26
10008;BME280;5043;41.766;26.204;2023-09-18T11:13:41;101260.78;;;30.56;30.20
10008;BME280;5043;41.766;26.204;2023-09-18T11:16:16;101252.22;;;30.89;29.65
10008;BME280;5043;41.766;26.204;2023-09-18T11:18:47;101255.91;;;31.54;28.71
10008;BME280;5043;41.766;26.204;2023-09-18T11:21:15;101221.53;;;31.76;28.09
10008;BME280;5043;41.766;26.204;2023-09-18T11:23:42;101259.25;;;31.91;28.38
10008;BME280;5043;41.766;26.204;2023-09-18T11:26:11;101264.75;;;32.37;27.85
10008;BME280;5043;41.766;26.204;2023-09-18T11:28:37;101261.19;;;32.37;27.91
10008;BME280;5043;41.766;26.204;2023-09-18T11:31:04;101215.69;;;31.61;29.14
10008;BME280;5043;41.766;26.204;2023-09-18T11:33:39;101260.09;;;32.26;28.98
10008;BME280;5043;41.766;26.204;2023-09-18T11:36:28;101265.41;;;31.63;29.24
10008;BME280;5043;41.766;26.204;2023-09-18T11:38:58;101236.69;;;31.19;29.56
10008;BME280;5043;41.766;26.204;2023-09-18T11:41:33;101257.13;;;30.63;30.08
10008;BME280;5043;41.766;26.204;2023-09-18T11:46:39;101215.97;;;30.34;30.79
10008;BME280;5043;41.766;26.204;2023-09-18T11:49:10;101215.56;;;30.67;29.96
10008;BME280;5043;41.766;26.204;2023-09-18T11:51:36;101242.97;;;31.61;29.06
10008;BME280;5043;41.766;26.204;2023-09-18T11:54:06;101250.25;;;31.90;29.17
10008;BME280;5043;41.766;26.204;2023-09-18T11:56:39;101227.44;;;31.73;28.63
10008;BME280;5043;41.766;26.204;2023-09-18T11:59:05;101223.75;;;31.15;29.81
10008;BME280;5043;41.766;26.204;2023-09-18T12:01:32;101235.34;;;31.52;30.40
10008;BME280;5043;41.766;26.204;2023-09-18T12:04:27;101194.16;;;31.42;29.67
10008;BME280;5043;41.766;26.204;2023-09-18T12:06:54;101211.34;;;32.07;29.56
10008;BME280;5043;41.766;26.204;2023-09-18T12:09:19;101228.28;;;32.83;28.73
10008;BME280;5043;41.766;26.204;2023-09-18T12:11:46;101230.34;;;33.33;28.49
10008;BME280;5043;41.766;26.204;2023-09-18T12:14:20;101235.91;;;32.81;29.32
10008;BME280;5043;41.766;26.204;2023-09-18T12:16:46;101224.97;;;31.83;30.13
10008;BME280;5043;41.766;26.204;2023-09-18T12:19:18;101231.78;;;31.10;31.73
10008;BME280;5043;41.766;26.204;2023-09-18T12:21:46;101225.56;;;30.73;31.65
10008;BME280;5043;41.766;26.204;2023-09-18T12:24:14;101234.13;;;30.40;32.41
10008;BME280;5043;41.766;26.204;2023-09-18T12:26:40;101204.03;;;30.11;33.20
10008;BME280;5043;41.766;26.204;2023-09-18T12:29:06;101224.88;;;30.23;33.17
10008;BME280;5043;41.766;26.204;2023-09-18T12:31:33;101220.59;;;29.91;33.71
10008;BME280;5043;41.766;26.204;2023-09-18T12:33:59;101216.34;;;29.95;34.45
10008;BME280;5043;41.766;26.204;2023-09-18T12:36:25;101157.56;;;29.20;35.45
10008;BME280;5043;41.766;26.204;2023-09-18T12:38:58;101215.84;;;29.31;35.98
10008;BME280;5043;41.766;26.204;2023-09-18T12:41:26;101169.25;;;28.89;36.06
10008;BME280;5043;41.766;26.204;2023-09-18T12:43:52;101193.78;;;28.76;36.05
10008;BME280;5043;41.766;26.204;2023-09-18T12:46:19;101204.94;;;28.99;35.42
10008;BME280;5043;41.766;26.204;2023-09-18T12:48:46;101213.75;;;29.26;35.51
10008;BME280;5043;41.766;26.204;2023-09-18T12:51:13;101207.34;;;29.20;34.58
10008;BME280;5043;41.766;26.204;2023-09-18T12:53:39;101194.47;;;28.96;35.33
10008;BME280;5043;41.766;26.204;2023-09-18T12:56:12;101205.97;;;28.98;37.06
10008;BME280;5043;41.766;26.204;2023-09-18T12:58:39;101165.84;;;29.32;36.53